sensor_id;sensor_type;location;lat;lon;timestamp;P1;durP1;ratioP1;P2;durP2;ratioP2
78716;SDS011;68045;50.042;14.432;2023-08-06T00:00:28;7.68;;;4.93;;
78716;SDS011;68045;50.042;14.432;2023-08-06T00:04:49;6.47;;;4.78;;
78716;SDS011;68045;50.042;14.432;2023-08-06T00:08:49;6.82;;;5.03;;
78716;SDS011;68045;50.042;14.432;2023-08-06T00:12:50;7.20;;;5.40;;
78716;SDS011;68045;50.042;14.432;2023-08-06T00:16:51;8.10;;;5.07;;
78716;SDS011;68045;50.042;14.432;2023-08-06T00:20:52;7.68;;;5.15;;
78716;SDS011;68045;50.042;14.432;2023-08-06T00:24:53;8.15;;;4.80;;
78716;SDS011;68045;50.042;14.432;2023-08-06T00:28:53;8.63;;;5.43;;
78716;SDS011;68045;50.042;14.432;2023-08-06T00:32:55;7.95;;;5.10;;
78716;SDS011;68045;50.042;14.432;2023-08-06T00:36:56;6.45;;;5.28;;
78716;SDS011;68045;50.042;14.432;2023-08-06T00:40:56;9.80;;;5.40;;
78716;SDS011;68045;50.042;14.432;2023-08-06T00:44:57;5.97;;;4.82;;
78716;SDS011;68045;50.042;14.432;2023-08-06T00:48:58;8.52;;;5.30;;
78716;SDS011;68045;50.042;14.432;2023-08-06T00:53:00;6.13;;;4.63;;
78716;SDS011;68045;50.042;14.432;2023-08-06T00:57:02;7.93;;;4.35;;
78716;SDS011;68045;50.042;14.432;2023-08-06T01:01:05;8.05;;;4.90;;
78716;SDS011;68045;50.042;14.432;2023-08-06T01:05:06;7.65;;;4.68;;
78716;SDS011;68045;50.042;14.432;2023-08-06T01:18:16;6.28;;;4.32;;
78716;SDS011;68045;50.042;14.432;2023-08-06T01:22:17;6.30;;;4.53;;
78716;SDS011;68045;50.042;14.432;2023-08-06T01:26:27;7.03;;;4.68;;
78716;SDS011;68045;50.042;14.432;2023-08-06T01:30:33;7.53;;;4.50;;
78716;SDS011;68045;50.042;14.432;2023-08-06T01:34:40;7.25;;;4.68;;
78716;SDS011;68045;50.042;14.432;2023-08-06T01:38:44;6.20;;;4.70;;
78716;SDS011;68045;50.042;14.432;2023-08-06T01:42:45;8.65;;;5.47;;
78716;SDS011;68045;50.042;14.432;2023-08-06T01:46:46;7.72;;;5.35;;
78716;SDS011;68045;50.042;14.432;2023-08-06T01:50:47;7.65;;;5.15;;
78716;SDS011;68045;50.042;14.432;2023-08-06T01:54:48;9.02;;;5.72;;
78716;SDS011;68045;50.042;14.432;2023-08-06T01:58:48;7.55;;;5.18;;
78716;SDS011;68045;50.042;14.432;2023-08-06T02:02:49;6.90;;;5.07;;
78716;SDS011;68045;50.042;14.432;2023-08-06T02:06:50;8.35;;;5.68;;
78716;SDS011;68045;50.042;14.432;2023-08-06T02:10:51;6.93;;;4.85;;
78716;SDS011;68045;50.042;14.432;2023-08-06T02:14:52;8.48;;;5.55;;
78716;SDS011;68045;50.042;14.432;2023-08-06T02:18:52;7.78;;;5.35;;
78716;SDS011;68045;50.042;14.432;2023-08-06T02:22:53;7.80;;;5.70;;
78716;SDS011;68045;50.042;14.432;2023-08-06T02:26:54;7.22;;;4.93;;
78716;SDS011;68045;50.042;14.432;2023-08-06T02:30:56;6.32;;;4.68;;
78716;SDS011;68045;50.042;14.432;2023-08-06T02:34:57;6.53;;;4.65;;
78716;SDS011;68045;50.042;14.432;2023-08-06T02:38:58;7.30;;;4.47;;
78716;SDS011;68045;50.042;14.432;2023-08-06T02:42:59;8.35;;;5.57;;
78716;SDS011;68045;50.042;14.432;2023-08-06T02:47:00;9.50;;;7.28;;
78716;SDS011;68045;50.042;14.432;2023-08-06T02:51:01;13.77;;;9.75;;
78716;SDS011;68045;50.042;14.432;2023-08-06T02:55:04;14.10;;;9.70;;
78716;SDS011;68045;50.042;14.432;2023-08-06T02:59:06;15.82;;;10.70;;
78716;SDS011;68045;50.042;14.432;2023-08-06T03:03:35;14.75;;;9.18;;
78716;SDS011;68045;50.042;14.432;2023-08-06T03:07:38;11.60;;;7.90;;
78716;SDS011;68045;50.042;14.432;2023-08-06T03:11:47;11.25;;;7.75;;
78716;SDS011;68045;50.042;14.432;2023-08-06T03:15:56;10.48;;;7.20;;
78716;SDS011;68045;50.042;14.432;2023-08-06T03:19:59;7.70;;;5.70;;
78716;SDS011;68045;50.042;14.432;2023-08-06T03:24:00;9.50;;;5.50;;
78716;SDS011;68045;50.042;14.432;2023-08-06T03:28:05;9.23;;;6.00;;
78716;SDS011;68045;50.042;14.432;2023-08-06T03:32:08;11.07;;;5.50;;
78716;SDS011;68045;50.042;14.432;2023-08-06T03:36:09;7.47;;;4.72;;
78716;SDS011;68045;50.042;14.432;2023-08-06T03:40:10;5.88;;;4.47;;
78716;SDS011;68045;50.042;14.432;2023-08-06T03:44:12;8.55;;;4.65;;
78716;SDS011;68045;50.042;14.432;2023-08-06T03:48:12;5.53;;;4.45;;
78716;SDS011;68045;50.042;14.432;2023-08-06T03:52:13;6.07;;;4.25;;
78716;SDS011;68045;50.042;14.432;2023-08-06T03:56:15;6.63;;;4.47;;
78716;SDS011;68045;50.042;14.432;2023-08-06T04:00:16;6.82;;;4.38;;
78716;SDS011;68045;50.042;14.432;2023-08-06T04:04:23;6.18;;;4.70;;
78716;SDS011;68045;50.042;14.432;2023-08-06T04:08:23;7.50;;;5.20;;
78716;SDS011;68045;50.042;14.432;2023-08-06T04:12:25;6.63;;;4.90;;
78716;SDS011;68045;50.042;14.432;2023-08-06T04:16:26;6.55;;;4.82;;
78716;SDS011;68045;50.042;14.432;2023-08-06T04:20:27;7.68;;;5.03;;
78716;SDS011;68045;50.042;14.432;2023-08-06T04:24:28;9.98;;;5.38;;
78716;SDS011;68045;50.042;14.432;2023-08-06T04:28:28;7.55;;;4.88;;
78716;SDS011;68045;50.042;14.432;2023-08-06T04:32:30;9.73;;;6.50;;
78716;SDS011;68045;50.042;14.432;2023-08-06T04:36:31;8.55;;;5.68;;
78716;SDS011;68045;50.042;14.432;2023-08-06T04:40:35;7.80;;;5.55;;
78716;SDS011;68045;50.042;14.432;2023-08-06T04:44:37;10.95;;;5.32;;
78716;SDS011;68045;50.042;14.432;2023-08-06T04:48:38;7.72;;;6.07;;
78716;SDS011;68045;50.042;14.432;2023-08-06T04:52:39;7.30;;;5.72;;
78716;SDS011;68045;50.042;14.432;2023-08-06T04:56:40;7.65;;;5.65;;
78716;SDS011;68045;50.042;14.432;2023-08-06T05:00:41;7.05;;;4.90;;
78716;SDS011;68045;50.042;14.432;2023-08-06T05:04:42;7.68;;;5.32;;
78716;SDS011;68045;50.042;14.432;2023-08-06T05:08:43;7.30;;;5.30;;
78716;SDS011;68045;50.042;14.432;2023-08-06T05:12:44;6.28;;;4.85;;
78716;SDS011;68045;50.042;14.432;2023-08-06T05:16:45;6.82;;;4.97;;
78716;SDS011;68045;50.042;14.432;2023-08-06T05:20:45;7.18;;;4.88;;
78716;SDS011;68045;50.042;14.432;2023-08-06T05:24:46;7.22;;;5.07;;
78716;SDS011;68045;50.042;14.432;2023-08-06T05:28:47;10.10;;;5.40;;
78716;SDS011;68045;50.042;14.432;2023-08-06T05:32:48;6.30;;;5.03;;
78716;SDS011;68045;50.042;14.432;2023-08-06T05:36:49;9.40;;;4.78;;
78716;SDS011;68045;50.042;14.432;2023-08-06T05:40:49;7.00;;;4.20;;
78716;SDS011;68045;50.042;14.432;2023-08-06T05:44:50;6.05;;;4.07;;
78716;SDS011;68045;50.042;14.432;2023-08-06T05:48:51;7.95;;;5.13;;
78716;SDS011;68045;50.042;14.432;2023-08-06T05:52:52;8.07;;;4.47;;
78716;SDS011;68045;50.042;14.432;2023-08-06T05:56:53;6.75;;;4.50;;
78716;SDS011;68045;50.042;14.432;2023-08-06T06:00:53;6.95;;;4.63;;
78716;SDS011;68045;50.042;14.432;2023-08-06T06:04:54;8.32;;;3.80;;
78716;SDS011;68045;50.042;14.432;2023-08-06T06:08:55;5.47;;;3.80;;
78716;SDS011;68045;50.042;14.432;2023-08-06T06:12:56;6.40;;;4.18;;
78716;SDS011;68045;50.042;14.432;2023-08-06T06:16:58;5.03;;;3.70;;
78716;SDS011;68045;50.042;14.432;2023-08-06T06:21:00;5.40;;;3.90;;
78716;SDS011;68045;50.042;14.432;2023-08-06T06:25:01;7.15;;;4.05;;
78716;SDS011;68045;50.042;14.432;2023-08-06T06:29:02;5.45;;;3.70;;
78716;SDS011;68045;50.042;14.432;2023-08-06T06:33:02;8.73;;;5.28;;
78716;SDS011;68045;50.042;14.432;2023-08-06T06:37:03;5.78;;;3.83;;
78716;SDS011;68045;50.042;14.432;2023-08-06T06:41:05;5.57;;;3.97;;
78716;SDS011;68045;50.042;14.432;2023-08-06T06:45:06;6.47;;;3.95;;
78716;SDS011;68045;50.042;14.432;2023-08-06T06:49:07;6.32;;;4.10;;
78716;SDS011;68045;50.042;14.432;2023-08-06T06:53:08;5.68;;;4.10;;
78716;SDS011;68045;50.042;14.432;2023-08-06T06:57:09;5.95;;;4.20;;
78716;SDS011;68045;50.042;14.432;2023-08-06T07:01:11;6.47;;;4.45;;
78716;SDS011;68045;50.042;14.432;2023-08-06T07:05:12;5.47;;;4.10;;
78716;SDS011;68045;50.042;14.432;2023-08-06T07:09:13;7.65;;;4.93;;
78716;SDS011;68045;50.042;14.432;2023-08-06T07:13:14;7.43;;;5.85;;
78716;SDS011;68045;50.042;14.432;2023-08-06T07:17:15;8.38;;;5.65;;
78716;SDS011;68045;50.042;14.432;2023-08-06T07:21:16;12.35;;;7.28;;
78716;SDS011;68045;50.042;14.432;2023-08-06T07:25:17;11.85;;;6.60;;
78716;SDS011;68045;50.042;14.432;2023-08-06T07:29:18;9.48;;;6.22;;
78716;SDS011;68045;50.042;14.432;2023-08-06T07:33:21;8.60;;;6.60;;
78716;SDS011;68045;50.042;14.432;2023-08-06T07:37:22;11.30;;;7.25;;
78716;SDS011;68045;50.042;14.432;2023-08-06T07:41:23;9.05;;;6.80;;
78716;SDS011;68045;50.042;14.432;2023-08-06T07:45:24;9.73;;;6.68;;
78716;SDS011;68045;50.042;14.432;2023-08-06T07:49:27;8.68;;;6.65;;
78716;SDS011;68045;50.042;14.432;2023-08-06T07:53:28;9.70;;;7.22;;
78716;SDS011;68045;50.042;14.432;2023-08-06T07:57:30;9.32;;;7.22;;
78716;SDS011;68045;50.042;14.432;2023-08-06T08:01:32;9.45;;;7.57;;
78716;SDS011;68045;50.042;14.432;2023-08-06T08:05:33;12.90;;;8.88;;
78716;SDS011;68045;50.042;14.432;2023-08-06T08:09:34;10.70;;;7.93;;
78716;SDS011;68045;50.042;14.432;2023-08-06T08:13:35;10.20;;;7.68;;
78716;SDS011;68045;50.042;14.432;2023-08-06T08:17:36;12.32;;;8.13;;
78716;SDS011;68045;50.042;14.432;2023-08-06T08:21:37;9.95;;;7.43;;
78716;SDS011;68045;50.042;14.432;2023-08-06T08:25:38;10.63;;;7.80;;
78716;SDS011;68045;50.042;14.432;2023-08-06T08:29:39;10.43;;;6.93;;
78716;SDS011;68045;50.042;14.432;2023-08-06T08:33:39;9.02;;;6.75;;
78716;SDS011;68045;50.042;14.432;2023-08-06T08:37:40;9.23;;;7.05;;
78716;SDS011;68045;50.042;14.432;2023-08-06T08:41:41;8.90;;;6.15;;
78716;SDS011;68045;50.042;14.432;2023-08-06T08:45:43;7.25;;;5.40;;
78716;SDS011;68045;50.042;14.432;2023-08-06T08:49:46;8.18;;;5.20;;
78716;SDS011;68045;50.042;14.432;2023-08-06T08:53:49;9.40;;;6.07;;
78716;SDS011;68045;50.042;14.432;2023-08-06T08:57:55;11.00;;;5.60;;
78716;SDS011;68045;50.042;14.432;2023-08-06T09:01:56;6.72;;;5.57;;
78716;SDS011;68045;50.042;14.432;2023-08-06T09:05:57;6.75;;;4.55;;
78716;SDS011;68045;50.042;14.432;2023-08-06T09:09:59;8.18;;;5.18;;
78716;SDS011;68045;50.042;14.432;2023-08-06T09:14:04;6.28;;;4.38;;
78716;SDS011;68045;50.042;14.432;2023-08-06T09:18:11;6.03;;;4.60;;
78716;SDS011;68045;50.042;14.432;2023-08-06T09:22:12;5.55;;;4.47;;
78716;SDS011;68045;50.042;14.432;2023-08-06T09:26:14;6.45;;;4.55;;
78716;SDS011;68045;50.042;14.432;2023-08-06T09:30:28;5.80;;;4.10;;
78716;SDS011;68045;50.042;14.432;2023-08-06T09:34:38;6.15;;;4.32;;
78716;SDS011;68045;50.042;14.432;2023-08-06T09:38:40;5.68;;;3.85;;
78716;SDS011;68045;50.042;14.432;2023-08-06T09:42:42;5.72;;;4.35;;
78716;SDS011;68045;50.042;14.432;2023-08-06T09:50:47;5.75;;;3.90;;
78716;SDS011;68045;50.042;14.432;2023-08-06T09:54:49;6.50;;;3.90;;
78716;SDS011;68045;50.042;14.432;2023-08-06T09:58:51;4.78;;;4.00;;
78716;SDS011;68045;50.042;14.432;2023-08-06T10:02:54;6.63;;;3.60;;
78716;SDS011;68045;50.042;14.432;2023-08-06T10:06:59;6.63;;;3.97;;
78716;SDS011;68045;50.042;14.432;2023-08-06T10:11:02;27.30;;;15.45;;
78716;SDS011;68045;50.042;14.432;2023-08-06T10:15:05;16.38;;;10.20;;
78716;SDS011;68045;50.042;14.432;2023-08-06T10:19:10;14.13;;;8.45;;
78716;SDS011;68045;50.042;14.432;2023-08-06T10:23:13;10.85;;;4.20;;
78716;SDS011;68045;50.042;14.432;2023-08-06T10:27:19;6.75;;;3.25;;
78716;SDS011;68045;50.042;14.432;2023-08-06T10:35:56;4.72;;;3.60;;
78716;SDS011;68045;50.042;14.432;2023-08-06T10:40:02;7.30;;;3.80;;
78716;SDS011;68045;50.042;14.432;2023-08-06T10:44:06;4.75;;;3.35;;
78716;SDS011;68045;50.042;14.432;2023-08-06T10:48:10;4.47;;;3.28;;
78716;SDS011;68045;50.042;14.432;2023-08-06T10:52:11;6.22;;;3.92;;
78716;SDS011;68045;50.042;14.432;2023-08-06T10:56:22;5.18;;;3.60;;
78716;SDS011;68045;50.042;14.432;2023-08-06T11:00:24;5.28;;;4.00;;
78716;SDS011;68045;50.042;14.432;2023-08-06T11:04:25;8.13;;;3.53;;
78716;SDS011;68045;50.042;14.432;2023-08-06T11:08:34;6.00;;;3.30;;
78716;SDS011;68045;50.042;14.432;2023-08-06T11:12:36;4.60;;;3.67;;
78716;SDS011;68045;50.042;14.432;2023-08-06T11:16:37;7.22;;;4.45;;
78716;SDS011;68045;50.042;14.432;2023-08-06T11:20:38;6.22;;;3.63;;
78716;SDS011;68045;50.042;14.432;2023-08-06T11:24:39;7.00;;;4.05;;
78716;SDS011;68045;50.042;14.432;2023-08-06T11:28:40;5.07;;;3.47;;
78716;SDS011;68045;50.042;14.432;2023-08-06T11:32:44;6.55;;;3.25;;
78716;SDS011;68045;50.042;14.432;2023-08-06T11:36:47;5.90;;;3.10;;
78716;SDS011;68045;50.042;14.432;2023-08-06T11:40:49;4.75;;;3.38;;
78716;SDS011;68045;50.042;14.432;2023-08-06T11:44:50;4.93;;;3.30;;
78716;SDS011;68045;50.042;14.432;2023-08-06T11:48:52;5.50;;;3.67;;
78716;SDS011;68045;50.042;14.432;2023-08-06T11:52:58;4.63;;;3.33;;
78716;SDS011;68045;50.042;14.432;2023-08-06T11:57:00;4.93;;;3.58;;
78716;SDS011;68045;50.042;14.432;2023-08-06T12:01:02;6.10;;;3.90;;
78716;SDS011;68045;50.042;14.432;2023-08-06T12:05:13;7.22;;;3.60;;
78716;SDS011;68045;50.042;14.432;2023-08-06T12:09:15;4.85;;;3.72;;
78716;SDS011;68045;50.042;14.432;2023-08-06T12:13:16;4.82;;;3.60;;
78716;SDS011;68045;50.042;14.432;2023-08-06T12:17:16;5.47;;;3.83;;
78716;SDS011;68045;50.042;14.432;2023-08-06T12:21:17;4.47;;;3.50;;
78716;SDS011;68045;50.042;14.432;2023-08-06T12:25:18;4.65;;;3.63;;
78716;SDS011;68045;50.042;14.432;2023-08-06T12:29:19;7.47;;;3.55;;
78716;SDS011;68045;50.042;14.432;2023-08-06T12:33:19;6.97;;;4.07;;
78716;SDS011;68045;50.042;14.432;2023-08-06T12:37:20;7.30;;;4.00;;
78716;SDS011;68045;50.042;14.432;2023-08-06T12:41:21;4.82;;;3.97;;
78716;SDS011;68045;50.042;14.432;2023-08-06T12:45:22;6.22;;;3.95;;
78716;SDS011;68045;50.042;14.432;2023-08-06T12:49:22;7.07;;;4.07;;
78716;SDS011;68045;50.042;14.432;2023-08-06T12:53:25;6.28;;;4.18;;
78716;SDS011;68045;50.042;14.432;2023-08-06T12:57:26;6.97;;;4.03;;
78716;SDS011;68045;50.042;14.432;2023-08-06T13:01:28;5.60;;;4.10;;
78716;SDS011;68045;50.042;14.432;2023-08-06T13:05:28;4.55;;;3.42;;
78716;SDS011;68045;50.042;14.432;2023-08-06T13:09:29;5.10;;;3.88;;
78716;SDS011;68045;50.042;14.432;2023-08-06T13:13:31;5.22;;;4.15;;
78716;SDS011;68045;50.042;14.432;2023-08-06T13:17:31;8.13;;;4.60;;
78716;SDS011;68045;50.042;14.432;2023-08-06T13:29:37;10.40;;;4.18;;
78716;SDS011;68045;50.042;14.432;2023-08-06T13:33:38;5.88;;;4.25;;
78716;SDS011;68045;50.042;14.432;2023-08-06T13:37:39;5.95;;;4.68;;
78716;SDS011;68045;50.042;14.432;2023-08-06T13:41:40;5.82;;;4.15;;
78716;SDS011;68045;50.042;14.432;2023-08-06T13:45:41;5.45;;;3.38;;
78716;SDS011;68045;50.042;14.432;2023-08-06T13:49:42;5.82;;;3.50;;
78716;SDS011;68045;50.042;14.432;2023-08-06T13:53:43;6.50;;;4.78;;
78716;SDS011;68045;50.042;14.432;2023-08-06T13:57:44;5.15;;;3.33;;
78716;SDS011;68045;50.042;14.432;2023-08-06T14:01:46;7.75;;;3.58;;
78716;SDS011;68045;50.042;14.432;2023-08-06T14:05:47;5.95;;;3.70;;
78716;SDS011;68045;50.042;14.432;2023-08-06T14:09:48;5.18;;;3.50;;
78716;SDS011;68045;50.042;14.432;2023-08-06T14:13:49;6.30;;;3.30;;
78716;SDS011;68045;50.042;14.432;2023-08-06T14:17:50;4.82;;;3.20;;
78716;SDS011;68045;50.042;14.432;2023-08-06T14:21:51;5.28;;;3.20;;
78716;SDS011;68045;50.042;14.432;2023-08-06T14:25:53;4.47;;;2.92;;
78716;SDS011;68045;50.042;14.432;2023-08-06T14:29:54;5.20;;;2.92;;
78716;SDS011;68045;50.042;14.432;2023-08-06T14:33:54;4.88;;;3.10;;
78716;SDS011;68045;50.042;14.432;2023-08-06T14:37:55;4.38;;;2.83;;
78716;SDS011;68045;50.042;14.432;2023-08-06T14:41:56;4.45;;;2.90;;
78716;SDS011;68045;50.042;14.432;2023-08-06T14:45:57;4.88;;;2.55;;
78716;SDS011;68045;50.042;14.432;2023-08-06T14:49:58;3.70;;;2.38;;
78716;SDS011;68045;50.042;14.432;2023-08-06T14:53:58;3.22;;;2.58;;
78716;SDS011;68045;50.042;14.432;2023-08-06T14:58:00;4.07;;;2.55;;
78716;SDS011;68045;50.042;14.432;2023-08-06T15:02:02;4.55;;;2.55;;
78716;SDS011;68045;50.042;14.432;2023-08-06T15:10:04;3.92;;;2.20;;
78716;SDS011;68045;50.042;14.432;2023-08-06T15:14:05;4.30;;;2.70;;
78716;SDS011;68045;50.042;14.432;2023-08-06T15:18:07;3.22;;;2.42;;
78716;SDS011;68045;50.042;14.432;2023-08-06T15:22:08;4.15;;;2.80;;
78716;SDS011;68045;50.042;14.432;2023-08-06T15:26:13;4.93;;;2.60;;
78716;SDS011;68045;50.042;14.432;2023-08-06T15:30:14;4.53;;;2.72;;
78716;SDS011;68045;50.042;14.432;2023-08-06T15:34:15;9.65;;;4.45;;
78716;SDS011;68045;50.042;14.432;2023-08-06T15:38:16;14.90;;;6.32;;
78716;SDS011;68045;50.042;14.432;2023-08-06T15:42:17;7.95;;;4.45;;
78716;SDS011;68045;50.042;14.432;2023-08-06T15:46:18;5.78;;;3.10;;
78716;SDS011;68045;50.042;14.432;2023-08-06T15:50:19;3.63;;;2.63;;
78716;SDS011;68045;50.042;14.432;2023-08-06T15:54:20;5.07;;;2.90;;
78716;SDS011;68045;50.042;14.432;2023-08-06T15:58:21;5.15;;;3.13;;
78716;SDS011;68045;50.042;14.432;2023-08-06T16:02:21;6.95;;;3.00;;
78716;SDS011;68045;50.042;14.432;2023-08-06T16:06:24;5.43;;;2.90;;
78716;SDS011;68045;50.042;14.432;2023-08-06T16:10:25;6.70;;;2.83;;
78716;SDS011;68045;50.042;14.432;2023-08-06T16:14:26;5.47;;;2.75;;
78716;SDS011;68045;50.042;14.432;2023-08-06T16:18:26;5.95;;;2.78;;
78716;SDS011;68045;50.042;14.432;2023-08-06T16:22:28;3.70;;;2.50;;
78716;SDS011;68045;50.042;14.432;2023-08-06T16:26:29;5.05;;;2.38;;
78716;SDS011;68045;50.042;14.432;2023-08-06T16:30:31;3.97;;;2.35;;
78716;SDS011;68045;50.042;14.432;2023-08-06T16:34:32;4.35;;;2.00;;
78716;SDS011;68045;50.042;14.432;2023-08-06T16:38:33;3.40;;;1.88;;
78716;SDS011;68045;50.042;14.432;2023-08-06T16:42:34;2.70;;;1.50;;
78716;SDS011;68045;50.042;14.432;2023-08-06T16:46:34;3.00;;;1.50;;
78716;SDS011;68045;50.042;14.432;2023-08-06T16:50:37;2.15;;;1.50;;
78716;SDS011;68045;50.042;14.432;2023-08-06T16:54:38;4.47;;;1.63;;
78716;SDS011;68045;50.042;14.432;2023-08-06T16:58:39;2.83;;;1.60;;
78716;SDS011;68045;50.042;14.432;2023-08-06T17:02:40;4.32;;;1.65;;
78716;SDS011;68045;50.042;14.432;2023-08-06T17:06:40;3.38;;;1.58;;
78716;SDS011;68045;50.042;14.432;2023-08-06T17:10:41;4.57;;;1.75;;
78716;SDS011;68045;50.042;14.432;2023-08-06T17:14:42;2.72;;;1.40;;
78716;SDS011;68045;50.042;14.432;2023-08-06T17:18:44;2.55;;;1.75;;
78716;SDS011;68045;50.042;14.432;2023-08-06T17:22:44;2.70;;;1.80;;
78716;SDS011;68045;50.042;14.432;2023-08-06T17:26:45;3.45;;;1.90;;
78716;SDS011;68045;50.042;14.432;2023-08-06T17:30:47;2.70;;;1.98;;
78716;SDS011;68045;50.042;14.432;2023-08-06T17:34:49;4.50;;;2.28;;
78716;SDS011;68045;50.042;14.432;2023-08-06T17:38:49;4.60;;;2.15;;
78716;SDS011;68045;50.042;14.432;2023-08-06T17:42:51;3.22;;;1.90;;
78716;SDS011;68045;50.042;14.432;2023-08-06T17:46:52;3.03;;;1.50;;
78716;SDS011;68045;50.042;14.432;2023-08-06T17:50:53;2.47;;;1.42;;
78716;SDS011;68045;50.042;14.432;2023-08-06T17:54:54;4.15;;;1.60;;
78716;SDS011;68045;50.042;14.432;2023-08-06T17:58:55;1.95;;;1.30;;
78716;SDS011;68045;50.042;14.432;2023-08-06T18:06:58;1.35;;;1.10;;
78716;SDS011;68045;50.042;14.432;2023-08-06T18:10:59;2.33;;;1.35;;
78716;SDS011;68045;50.042;14.432;2023-08-06T18:15:00;5.85;;;1.40;;
78716;SDS011;68045;50.042;14.432;2023-08-06T18:19:00;2.67;;;1.63;;
78716;SDS011;68045;50.042;14.432;2023-08-06T18:23:01;3.05;;;1.80;;
78716;SDS011;68045;50.042;14.432;2023-08-06T18:27:02;2.28;;;1.38;;
78716;SDS011;68045;50.042;14.432;2023-08-06T18:31:03;2.40;;;1.50;;
78716;SDS011;68045;50.042;14.432;2023-08-06T18:35:04;2.08;;;1.40;;
78716;SDS011;68045;50.042;14.432;2023-08-06T18:39:06;2.05;;;1.38;;
78716;SDS011;68045;50.042;14.432;2023-08-06T18:43:07;2.60;;;1.60;;
78716;SDS011;68045;50.042;14.432;2023-08-06T18:47:10;2.38;;;1.48;;
78716;SDS011;68045;50.042;14.432;2023-08-06T18:51:12;1.50;;;1.00;;
78716;SDS011;68045;50.042;14.432;2023-08-06T18:55:13;2.65;;;1.35;;
78716;SDS011;68045;50.042;14.432;2023-08-06T18:59:14;1.80;;;1.23;;
78716;SDS011;68045;50.042;14.432;2023-08-06T19:03:20;1.63;;;1.17;;
78716;SDS011;68045;50.042;14.432;2023-08-06T19:07:21;1.50;;;1.33;;
78716;SDS011;68045;50.042;14.432;2023-08-06T19:11:22;2.35;;;1.10;;
78716;SDS011;68045;50.042;14.432;2023-08-06T19:15:23;1.98;;;1.25;;
78716;SDS011;68045;50.042;14.432;2023-08-06T19:19:24;1.67;;;1.25;;
78716;SDS011;68045;50.042;14.432;2023-08-06T19:23:25;2.10;;;1.48;;
78716;SDS011;68045;50.042;14.432;2023-08-06T19:27:29;2.20;;;1.60;;
78716;SDS011;68045;50.042;14.432;2023-08-06T19:31:30;2.40;;;1.70;;
78716;SDS011;68045;50.042;14.432;2023-08-06T19:35:31;1.70;;;1.20;;
78716;SDS011;68045;50.042;14.432;2023-08-06T19:39:31;1.90;;;1.20;;
78716;SDS011;68045;50.042;14.432;2023-08-06T19:43:33;1.00;;;0.90;;
78716;SDS011;68045;50.042;14.432;2023-08-06T19:47:35;1.33;;;1.00;;
78716;SDS011;68045;50.042;14.432;2023-08-06T19:51:35;0.93;;;0.80;;
78716;SDS011;68045;50.042;14.432;2023-08-06T19:55:40;2.03;;;1.00;;
78716;SDS011;68045;50.042;14.432;2023-08-06T19:59:42;1.00;;;0.90;;
78716;SDS011;68045;50.042;14.432;2023-08-06T20:03:43;1.33;;;0.95;;
78716;SDS011;68045;50.042;14.432;2023-08-06T20:07:44;3.55;;;0.85;;
78716;SDS011;68045;50.042;14.432;2023-08-06T20:11:45;1.20;;;1.10;;
78716;SDS011;68045;50.042;14.432;2023-08-06T20:15:48;0.57;;;0.57;;
78716;SDS011;68045;50.042;14.432;2023-08-06T20:19:49;1.00;;;0.90;;
78716;SDS011;68045;50.042;14.432;2023-08-06T20:23:49;0.93;;;0.85;;
78716;SDS011;68045;50.042;14.432;2023-08-06T20:27:50;0.57;;;0.57;;
78716;SDS011;68045;50.042;14.432;2023-08-06T20:31:51;1.08;;;0.70;;
78716;SDS011;68045;50.042;14.432;2023-08-06T20:35:52;0.65;;;0.65;;
78716;SDS011;68045;50.042;14.432;2023-08-06T20:39:53;0.70;;;0.70;;
78716;SDS011;68045;50.042;14.432;2023-08-06T20:43:54;0.85;;;0.77;;
78716;SDS011;68045;50.042;14.432;2023-08-06T20:47:55;0.70;;;0.70;;
78716;SDS011;68045;50.042;14.432;2023-08-06T20:51:56;0.70;;;0.60;;
78716;SDS011;68045;50.042;14.432;2023-08-06T20:55:57;0.85;;;0.77;;
78716;SDS011;68045;50.042;14.432;2023-08-06T21:00:01;0.60;;;0.57;;
78716;SDS011;68045;50.042;14.432;2023-08-06T21:04:05;0.82;;;0.68;;
78716;SDS011;68045;50.042;14.432;2023-08-06T21:08:10;0.80;;;0.80;;
78716;SDS011;68045;50.042;14.432;2023-08-06T21:12:11;0.47;;;0.47;;
78716;SDS011;68045;50.042;14.432;2023-08-06T21:16:12;0.43;;;0.43;;
78716;SDS011;68045;50.042;14.432;2023-08-06T21:20:13;1.92;;;0.63;;
78716;SDS011;68045;50.042;14.432;2023-08-06T21:24:13;2.42;;;0.75;;
78716;SDS011;68045;50.042;14.432;2023-08-06T21:28:14;1.83;;;0.80;;
78716;SDS011;68045;50.042;14.432;2023-08-06T21:32:15;0.73;;;0.73;;
78716;SDS011;68045;50.042;14.432;2023-08-06T21:36:16;0.70;;;0.70;;
78716;SDS011;68045;50.042;14.432;2023-08-06T21:40:18;1.13;;;0.70;;
78716;SDS011;68045;50.042;14.432;2023-08-06T21:44:18;1.20;;;0.82;;
78716;SDS011;68045;50.042;14.432;2023-08-06T21:48:19;0.65;;;0.65;;
78716;SDS011;68045;50.042;14.432;2023-08-06T21:52:19;0.77;;;0.50;;
78716;SDS011;68045;50.042;14.432;2023-08-06T21:56:20;1.80;;;0.70;;
78716;SDS011;68045;50.042;14.432;2023-08-06T22:00:21;1.75;;;0.65;;
78716;SDS011;68045;50.042;14.432;2023-08-06T22:04:22;0.60;;;0.60;;
78716;SDS011;68045;50.042;14.432;2023-08-06T22:08:23;1.45;;;0.60;;
78716;SDS011;68045;50.042;14.432;2023-08-06T22:12:23;0.70;;;0.70;;
78716;SDS011;68045;50.042;14.432;2023-08-06T22:16:24;0.40;;;0.40;;
78716;SDS011;68045;50.042;14.432;2023-08-06T22:20:26;0.45;;;0.45;;
78716;SDS011;68045;50.042;14.432;2023-08-06T22:24:27;0.68;;;0.68;;
78716;SDS011;68045;50.042;14.432;2023-08-06T22:28:28;0.40;;;0.40;;
78716;SDS011;68045;50.042;14.432;2023-08-06T22:32:28;0.93;;;0.70;;
78716;SDS011;68045;50.042;14.432;2023-08-06T22:36:29;0.57;;;0.55;;
78716;SDS011;68045;50.042;14.432;2023-08-06T22:40:30;0.85;;;0.80;;
78716;SDS011;68045;50.042;14.432;2023-08-06T22:44:31;2.38;;;0.70;;
78716;SDS011;68045;50.042;14.432;2023-08-06T22:48:32;0.60;;;0.60;;
78716;SDS011;68045;50.042;14.432;2023-08-06T22:52:33;0.32;;;0.32;;
78716;SDS011;68045;50.042;14.432;2023-08-06T22:56:34;0.45;;;0.45;;
78716;SDS011;68045;50.042;14.432;2023-08-06T23:00:35;0.45;;;0.45;;
78716;SDS011;68045;50.042;14.432;2023-08-06T23:04:36;0.57;;;0.57;;
78716;SDS011;68045;50.042;14.432;2023-08-06T23:08:36;0.73;;;0.68;;
78716;SDS011;68045;50.042;14.432;2023-08-06T23:12:37;0.75;;;0.75;;
78716;SDS011;68045;50.042;14.432;2023-08-06T23:16:38;0.77;;;0.65;;
78716;SDS011;68045;50.042;14.432;2023-08-06T23:20:39;0.57;;;0.50;;
78716;SDS011;68045;50.042;14.432;2023-08-06T23:24:40;2.28;;;0.65;;
78716;SDS011;68045;50.042;14.432;2023-08-06T23:28:41;1.52;;;0.40;;
78716;SDS011;68045;50.042;14.432;2023-08-06T23:32:44;0.57;;;0.57;;
78716;SDS011;68045;50.042;14.432;2023-08-06T23:36:45;0.50;;;0.50;;
78716;SDS011;68045;50.042;14.432;2023-08-06T23:40:47;0.60;;;0.60;;
78716;SDS011;68045;50.042;14.432;2023-08-06T23:44:49;3.03;;;0.73;;
78716;SDS011;68045;50.042;14.432;2023-08-06T23:48:50;0.80;;;0.65;;
78716;SDS011;68045;50.042;14.432;2023-08-06T23:52:51;0.43;;;0.43;;
78716;SDS011;68045;50.042;14.432;2023-08-06T23:56:52;2.28;;;0.85;;
